createdAt,value
2022-10-01T00:00:26.781Z,15.38
2022-10-01T00:02:57.083Z,15.25
2022-10-01T00:05:24.452Z,15.15
2022-10-01T00:07:51.557Z,15.11
2022-10-01T00:10:18.748Z,15.17
2022-10-01T00:12:47.535Z,15.16
2022-10-01T00:15:15.789Z,15.15
2022-10-01T00:17:43.629Z,15.12
2022-10-01T00:20:14.737Z,15.08
2022-10-01T00:22:42.025Z,15.06
2022-10-01T00:25:09.577Z,15.07
2022-10-01T00:27:38.160Z,15.15
2022-10-01T00:30:06.161Z,15.18
2022-10-01T00:32:33.462Z,15.10
2022-10-01T00:35:00.791Z,15.04
2022-10-01T00:37:28.203Z,15.09
2022-10-01T00:39:55.614Z,15.07
2022-10-01T00:42:24.459Z,15.08
2022-10-01T00:44:51.620Z,15.08
2022-10-01T00:47:21.513Z,15.08
2022-10-01T00:49:49.765Z,15.04
2022-10-01T00:52:18.813Z,15.02
2022-10-01T00:54:51.468Z,15.05
2022-10-01T00:57:20.879Z,15.02
2022-10-01T00:59:48.314Z,15.07
2022-10-01T01:02:15.610Z,15.15
2022-10-01T01:04:43.038Z,15.18
2022-10-01T01:07:10.319Z,15.09
2022-10-01T01:09:40.086Z,15.06
2022-10-01T01:12:25.692Z,15.01
2022-10-01T01:14:59.840Z,14.92
2022-10-01T01:17:32.202Z,14.87
2022-10-01T01:20:08.590Z,14.79
2022-10-01T01:22:37.831Z,14.67
2022-10-01T01:25:05.377Z,14.61
2022-10-01T01:27:46.372Z,14.70
2022-10-01T01:30:15.540Z,14.85
2022-10-01T01:32:43.009Z,14.98
2022-10-01T01:35:11.631Z,15.08
2022-10-01T01:37:45.366Z,15.17
2022-10-01T01:40:15.254Z,15.24
2022-10-01T01:42:44.356Z,15.21
2022-10-01T01:45:16.052Z,15.23
2022-10-01T01:47:44.152Z,15.13
2022-10-01T01:50:12.655Z,14.75
2022-10-01T01:52:40.074Z,15.17
2022-10-01T01:55:09.339Z,15.13
2022-10-01T01:57:38.034Z,15.03
2022-10-01T02:00:05.350Z,14.90
2022-10-01T02:02:36.458Z,14.84
2022-10-01T02:05:10.123Z,14.78
2022-10-01T02:07:46.700Z,14.68
2022-10-01T02:10:24.802Z,14.57
2022-10-01T02:13:02.307Z,14.47
2022-10-01T02:15:37.166Z,14.43
2022-10-01T02:18:30.364Z,14.42
2022-10-01T02:21:04.160Z,14.52
2022-10-01T02:23:38.379Z,14.59
2022-10-01T02:26:08.929Z,14.60
2022-10-01T02:28:38.281Z,14.54
2022-10-01T02:31:05.723Z,14.48
2022-10-01T02:33:35.602Z,14.36
2022-10-01T02:36:04.861Z,14.27
2022-10-01T02:38:33.732Z,14.20
2022-10-01T02:41:02.663Z,14.13
2022-10-01T02:43:33.813Z,14.05
2022-10-01T02:46:05.296Z,14.09
2022-10-01T02:48:32.573Z,14.18
2022-10-01T02:51:22.981Z,14.28
2022-10-01T02:53:53.030Z,14.32
2022-10-01T02:56:48.399Z,14.31
2022-10-01T02:59:16.015Z,14.39
2022-10-01T03:01:43.440Z,14.45
2022-10-01T03:04:10.709Z,14.38
2022-10-01T03:06:37.938Z,14.37
2022-10-01T03:09:05.466Z,14.38
2022-10-01T03:11:32.880Z,14.40
2022-10-01T03:14:01.137Z,14.38
2022-10-01T03:16:28.559Z,14.32
2022-10-01T03:18:55.966Z,14.37
2022-10-01T03:21:23.169Z,14.30
2022-10-01T03:23:50.368Z,14.29
2022-10-01T03:26:17.705Z,14.23
2022-10-01T03:28:45.005Z,14.24
2022-10-01T03:31:12.404Z,14.29
2022-10-01T03:33:41.309Z,14.31
2022-10-01T03:36:08.479Z,14.34
2022-10-01T03:38:35.836Z,14.45
2022-10-01T03:41:03.066Z,14.55
2022-10-01T03:43:30.549Z,14.56
2022-10-01T03:45:58.244Z,14.54
2022-10-01T03:48:25.419Z,14.46
2022-10-01T03:50:54.109Z,14.37
2022-10-01T03:53:21.699Z,14.28
2022-10-01T03:55:48.940Z,14.27
2022-10-01T03:58:16.894Z,14.22
2022-10-01T04:00:44.542Z,14.21
2022-10-01T04:03:11.912Z,14.30
2022-10-01T04:05:40.594Z,14.30
2022-10-01T04:08:08.126Z,14.37
2022-10-01T04:10:35.524Z,14.38
2022-10-01T04:13:02.927Z,14.43
2022-10-01T04:15:30.214Z,14.46
2022-10-01T04:17:58.222Z,14.35
2022-10-01T04:20:25.418Z,14.27
2022-10-01T04:22:53.321Z,14.23
2022-10-01T04:25:20.559Z,14.25
2022-10-01T04:27:57.941Z,14.29
2022-10-01T04:30:26.008Z,14.40
2022-10-01T04:32:53.000Z,14.51
2022-10-01T04:35:20.287Z,14.59
2022-10-01T04:37:47.941Z,14.62
2022-10-01T04:40:15.195Z,14.58
2022-10-01T04:42:43.765Z,14.61
2022-10-01T04:45:11.160Z,14.59
2022-10-01T04:47:38.872Z,14.54
2022-10-01T04:50:06.346Z,14.49
2022-10-01T04:52:33.389Z,14.42
2022-10-01T04:55:00.401Z,14.44
2022-10-01T04:57:28.785Z,14.44
2022-10-01T04:59:56.114Z,14.49
2022-10-01T05:02:23.357Z,14.49
2022-10-01T05:04:50.512Z,14.46
2022-10-01T05:07:19.601Z,14.38
2022-10-01T05:09:46.818Z,14.29
2022-10-01T05:12:14.842Z,14.22
2022-10-01T05:14:42.010Z,14.18
2022-10-01T05:17:09.500Z,14.15
2022-10-01T05:19:37.053Z,14.18
2022-10-01T05:22:04.507Z,14.19
2022-10-01T05:24:31.609Z,14.09
2022-10-01T05:26:58.834Z,14.02
2022-10-01T05:29:26.397Z,14.01
2022-10-01T05:31:53.562Z,14.02
2022-10-01T05:34:21.139Z,14.01
2022-10-01T05:36:48.408Z,13.99
2022-10-01T05:39:15.751Z,14.01
2022-10-01T05:41:43.145Z,13.99
2022-10-01T05:44:10.243Z,14.00
2022-10-01T05:46:37.943Z,14.10
2022-10-01T05:49:07.886Z,14.14
2022-10-01T05:51:36.667Z,14.09
2022-10-01T05:54:04.542Z,14.11
2022-10-01T05:56:31.912Z,14.17
2022-10-01T05:58:59.711Z,14.11
2022-10-01T06:01:26.775Z,14.22
2022-10-01T06:03:54.177Z,14.36
2022-10-01T06:06:25.096Z,14.47
2022-10-01T06:08:52.724Z,14.55
2022-10-01T06:11:22.759Z,14.52
2022-10-01T06:13:51.217Z,14.46
2022-10-01T06:16:18.486Z,14.50
2022-10-01T06:18:47.319Z,14.54
2022-10-01T06:21:14.505Z,14.55
2022-10-01T06:23:44.429Z,14.58
2022-10-01T06:26:11.928Z,14.67
2022-10-01T06:28:39.985Z,14.79
2022-10-01T06:31:07.144Z,14.73
2022-10-01T06:33:34.674Z,14.75
2022-10-01T06:36:03.477Z,14.77
2022-10-01T06:38:31.249Z,14.71
2022-10-01T06:40:59.616Z,14.78
2022-10-01T06:43:30.429Z,14.96
2022-10-01T06:46:00.875Z,15.00
2022-10-01T06:48:31.468Z,14.98
2022-10-01T06:50:59.421Z,14.98
2022-10-01T06:53:27.679Z,14.92
2022-10-01T06:55:55.304Z,14.87
2022-10-01T06:58:23.681Z,14.85
2022-10-01T07:00:51.177Z,14.99
2022-10-01T07:03:20.162Z,15.17
2022-10-01T07:05:48.038Z,15.21
2022-10-01T07:08:15.359Z,15.30
2022-10-01T07:10:44.323Z,15.33
2022-10-01T07:13:16.954Z,15.29
2022-10-01T07:15:45.159Z,15.13
2022-10-01T07:18:13.023Z,15.17
2022-10-01T07:20:40.984Z,15.10
2022-10-01T07:23:10.549Z,14.95
2022-10-01T07:25:39.002Z,14.98
2022-10-01T07:28:08.278Z,14.98
2022-10-01T07:30:35.533Z,14.94
2022-10-01T07:33:02.755Z,14.95
2022-10-01T07:35:29.940Z,14.90
2022-10-01T07:37:57.201Z,15.05
2022-10-01T07:40:24.565Z,15.04
2022-10-01T07:42:55.667Z,15.02
2022-10-01T07:45:23.462Z,15.03
2022-10-01T07:47:55.056Z,15.16
2022-10-01T07:50:22.584Z,15.22
2022-10-01T07:52:57.133Z,15.23
2022-10-01T07:55:27.373Z,15.22
2022-10-01T07:57:55.298Z,15.19
2022-10-01T08:00:23.357Z,15.15
2022-10-01T08:02:51.532Z,15.15
2022-10-01T08:05:19.291Z,15.22
2022-10-01T08:07:46.965Z,15.39
2022-10-01T08:10:15.329Z,15.48
2022-10-01T08:12:42.951Z,15.54
2022-10-01T08:15:19.071Z,15.69
2022-10-01T08:17:46.641Z,15.68
2022-10-01T08:20:15.269Z,15.48
2022-10-01T08:22:42.677Z,15.85
2022-10-01T08:25:10.517Z,15.92
2022-10-01T08:27:37.874Z,16.10
2022-10-01T08:30:05.649Z,16.30
2022-10-01T08:32:33.469Z,16.41
2022-10-01T08:35:01.498Z,16.37
2022-10-01T08:37:30.352Z,16.38
2022-10-01T08:39:57.592Z,16.47
2022-10-01T08:42:41.501Z,16.48
2022-10-01T08:45:23.870Z,16.39
2022-10-01T08:48:11.373Z,16.25
2022-10-01T08:50:41.381Z,16.24
2022-10-01T08:53:14.430Z,16.07
2022-10-01T08:55:41.846Z,15.88
2022-10-01T08:58:11.284Z,15.83
2022-10-01T09:00:40.508Z,15.76
2022-10-01T09:03:12.063Z,15.71
2022-10-01T09:05:59.096Z,15.69
2022-10-01T09:08:45.056Z,15.70
2022-10-01T09:11:22.392Z,15.61
2022-10-01T09:14:08.334Z,15.57
2022-10-01T09:16:52.804Z,15.57
2022-10-01T09:19:31.761Z,15.53
2022-10-01T09:22:02.413Z,15.50
2022-10-01T09:24:38.382Z,15.65
2022-10-01T09:27:10.875Z,15.76
2022-10-01T09:29:41.832Z,15.79
2022-10-01T09:32:15.129Z,15.81
2022-10-01T09:34:44.542Z,15.74
2022-10-01T09:37:18.470Z,15.63
2022-10-01T09:40:03.655Z,15.57
2022-10-01T09:42:31.720Z,15.55
2022-10-01T09:44:59.184Z,15.52
2022-10-01T09:47:26.629Z,15.55
2022-10-01T09:49:53.983Z,15.57
2022-10-01T09:52:41.538Z,15.53
2022-10-01T09:55:27.830Z,15.60
2022-10-01T09:58:09.776Z,15.61
2022-10-01T10:00:38.252Z,15.63
2022-10-01T10:03:05.516Z,15.60
2022-10-01T10:05:46.971Z,15.56
2022-10-01T10:08:30.594Z,15.56
2022-10-01T10:11:00.763Z,15.50
2022-10-01T10:13:35.465Z,15.51
2022-10-01T10:16:26.368Z,15.55
2022-10-01T10:18:57.892Z,15.54
2022-10-01T10:21:26.773Z,15.64
2022-10-01T10:23:59.478Z,15.70
2022-10-01T10:26:28.742Z,15.67
2022-10-01T10:28:58.854Z,15.72
2022-10-01T10:31:27.916Z,15.75
2022-10-01T10:34:27.861Z,15.73
2022-10-01T10:36:59.659Z,15.86
2022-10-01T10:39:30.762Z,15.99
2022-10-01T10:41:59.180Z,16.04
2022-10-01T10:44:30.481Z,16.06
2022-10-01T10:47:00.293Z,16.07
2022-10-01T10:49:30.184Z,16.17
2022-10-01T10:51:58.624Z,16.28
2022-10-01T10:54:33.743Z,16.29
2022-10-01T10:57:23.650Z,16.41
2022-10-01T11:00:08.726Z,16.71
2022-10-01T11:02:36.161Z,16.91
2022-10-01T11:05:04.818Z,17.12
2022-10-01T11:07:32.563Z,17.20
2022-10-01T11:10:11.771Z,17.28
2022-10-01T11:12:57.537Z,17.29
2022-10-01T11:15:30.996Z,17.19
2022-10-01T11:18:01.015Z,17.08
2022-10-01T11:20:34.752Z,16.86
2022-10-01T11:23:05.274Z,16.71
2022-10-01T11:25:51.065Z,16.72
2022-10-01T11:28:37.286Z,16.83
2022-10-01T11:31:25.113Z,16.70
2022-10-01T11:33:52.411Z,16.70
2022-10-01T11:36:19.650Z,16.72
2022-10-01T11:39:05.958Z,16.82
2022-10-01T11:41:39.814Z,16.95
2022-10-01T11:44:16.301Z,17.22
2022-10-01T11:46:54.320Z,17.53
2022-10-01T11:49:35.109Z,17.71
2022-10-01T11:52:11.588Z,17.85
2022-10-01T11:54:45.122Z,17.92
2022-10-01T11:57:32.614Z,18.00
2022-10-01T12:00:02.813Z,18.22
2022-10-01T12:02:39.920Z,18.40
2022-10-01T12:05:07.322Z,18.47
2022-10-01T12:07:53.262Z,18.48
2022-10-01T12:10:40.805Z,18.34
2022-10-01T12:13:13.920Z,18.38
2022-10-01T12:15:44.491Z,18.39
2022-10-01T12:18:12.875Z,18.32
2022-10-01T12:20:43.178Z,18.20
2022-10-01T12:23:36.869Z,18.05
2022-10-01T12:26:16.351Z,18.01
2022-10-01T12:28:56.678Z,17.93
2022-10-01T12:31:50.014Z,17.95
2022-10-01T12:34:17.517Z,17.95
2022-10-01T12:36:56.245Z,17.90
2022-10-01T12:39:32.253Z,17.83
2022-10-01T12:42:11.940Z,17.73
2022-10-01T12:44:46.179Z,17.66
2022-10-01T12:47:36.629Z,17.72
2022-10-01T12:50:15.908Z,18.02
2022-10-01T12:52:53.938Z,18.23
2022-10-01T12:55:39.519Z,18.29
2022-10-01T12:58:24.447Z,18.16
2022-10-01T13:01:04.799Z,17.87
2022-10-01T13:03:31.909Z,17.70
2022-10-01T13:05:59.021Z,17.60
2022-10-01T13:08:47.836Z,17.49
2022-10-01T13:11:28.738Z,17.46
2022-10-01T13:13:57.223Z,17.47
2022-10-01T13:16:39.932Z,17.49
2022-10-01T13:19:35.272Z,17.47
2022-10-01T13:22:07.858Z,17.46
2022-10-01T13:24:35.126Z,17.45
2022-10-01T13:27:05.509Z,17.45
2022-10-01T13:29:37.849Z,17.43
2022-10-01T13:32:26.192Z,17.42
2022-10-01T13:34:53.979Z,17.42
2022-10-01T13:37:30.440Z,17.36
2022-10-01T13:39:58.690Z,17.03
2022-10-01T13:42:28.048Z,17.23
2022-10-01T13:44:57.041Z,17.16
2022-10-01T13:47:25.287Z,17.13
2022-10-01T13:50:06.284Z,17.15
2022-10-01T13:52:34.254Z,17.15
2022-10-01T13:55:02.139Z,17.13
2022-10-01T13:57:37.707Z,17.09
2022-10-01T14:00:04.997Z,17.06
2022-10-01T14:02:37.302Z,17.05
2022-10-01T14:05:23.541Z,17.03
2022-10-01T14:07:55.309Z,16.98
2022-10-01T14:10:23.617Z,16.97
2022-10-01T14:13:09.699Z,16.96
2022-10-01T14:15:58.885Z,16.96
2022-10-01T14:18:28.876Z,16.90
2022-10-01T14:21:11.464Z,16.85
2022-10-01T14:23:44.661Z,16.80
2022-10-01T14:26:17.263Z,16.77
2022-10-01T14:29:10.896Z,16.74
2022-10-01T14:31:50.869Z,16.68
2022-10-01T14:34:18.840Z,16.58
2022-10-01T14:36:48.702Z,16.51
2022-10-01T14:39:23.638Z,16.48
2022-10-01T14:41:52.580Z,16.47
2022-10-01T14:44:22.209Z,16.46
2022-10-01T14:46:50.417Z,16.47
2022-10-01T14:49:23.532Z,16.47
2022-10-01T14:52:11.129Z,16.45
2022-10-01T14:54:47.730Z,16.40
2022-10-01T14:57:19.320Z,16.33
2022-10-01T14:59:48.170Z,16.27
2022-10-01T15:02:23.373Z,16.22
2022-10-01T15:04:52.501Z,16.19
2022-10-01T15:07:19.801Z,16.13
2022-10-01T15:09:48.232Z,16.06
2022-10-01T15:12:16.934Z,15.99
2022-10-01T15:14:44.954Z,15.95
2022-10-01T15:17:26.882Z,15.91
2022-10-01T15:19:55.571Z,15.87
2022-10-01T15:22:28.570Z,15.84
2022-10-01T15:24:59.748Z,15.81
2022-10-01T15:27:27.281Z,15.77
2022-10-01T15:29:56.856Z,15.74
2022-10-01T15:32:24.408Z,15.70
2022-10-01T15:34:53.202Z,15.69
2022-10-01T15:37:38.578Z,15.63
2022-10-01T15:40:06.959Z,15.60
2022-10-01T15:42:34.989Z,15.57
2022-10-01T15:45:08.866Z,15.54
2022-10-01T15:47:40.096Z,15.52
2022-10-01T15:50:10.101Z,15.49
2022-10-01T15:52:51.453Z,15.48
2022-10-01T15:55:24.146Z,15.47
2022-10-01T15:58:17.783Z,15.50
2022-10-01T16:00:48.098Z,15.51
2022-10-01T16:03:23.485Z,15.55
2022-10-01T16:05:51.664Z,15.55
2022-10-01T16:08:21.993Z,15.57
2022-10-01T16:11:08.084Z,15.57
2022-10-01T16:13:38.857Z,15.59
2022-10-01T16:16:19.601Z,15.63
2022-10-01T16:18:56.406Z,15.67
2022-10-01T16:21:24.437Z,15.67
2022-10-01T16:23:53.212Z,15.63
2022-10-01T16:26:32.780Z,15.59
2022-10-01T16:29:01.695Z,15.56
2022-10-01T16:31:29.658Z,15.54
2022-10-01T16:33:57.067Z,15.53
2022-10-01T16:36:26.348Z,15.54
2022-10-01T16:38:53.782Z,15.59
2022-10-01T16:41:25.582Z,15.63
2022-10-01T16:43:54.394Z,15.67
2022-10-01T16:46:21.676Z,15.71
2022-10-01T16:48:49.715Z,15.72
2022-10-01T16:51:16.935Z,15.68
2022-10-01T16:53:44.268Z,15.67
2022-10-01T16:56:12.377Z,15.68
2022-10-01T16:58:40.222Z,15.63
2022-10-01T17:01:12.034Z,15.59
2022-10-01T17:03:40.288Z,15.56
2022-10-01T17:06:07.521Z,15.59
2022-10-01T17:08:34.837Z,15.59
2022-10-01T17:11:03.019Z,15.59
2022-10-01T17:13:32.928Z,15.57
2022-10-01T17:16:00.880Z,15.65
2022-10-01T17:18:28.769Z,15.69
2022-10-01T17:20:56.414Z,15.66
2022-10-01T17:25:51.287Z,15.74
2022-10-01T17:28:20.108Z,15.75
2022-10-01T17:30:48.293Z,15.70
2022-10-01T17:33:16.466Z,15.65
2022-10-01T17:35:44.683Z,15.56
2022-10-01T17:38:12.723Z,15.51
2022-10-01T17:40:41.686Z,15.48
2022-10-01T17:43:13.073Z,15.46
2022-10-01T17:45:40.454Z,15.42
2022-10-01T17:48:08.168Z,15.36
2022-10-01T17:50:35.601Z,15.37
2022-10-01T17:53:02.795Z,15.40
2022-10-01T17:55:30.385Z,15.42
2022-10-01T17:57:57.522Z,15.45
2022-10-01T18:00:24.886Z,15.39
2022-10-01T18:02:52.218Z,15.30
2022-10-01T18:07:47.099Z,15.19
2022-10-01T18:10:14.457Z,15.16
2022-10-01T18:12:41.777Z,15.09
2022-10-01T18:15:09.427Z,15.06
2022-10-01T18:17:43.216Z,15.01
2022-10-01T18:20:10.968Z,15.01
2022-10-01T18:22:38.393Z,15.02
2022-10-01T18:25:06.004Z,15.03
2022-10-01T18:27:33.162Z,15.02
2022-10-01T18:30:00.288Z,15.04
2022-10-01T18:32:31.905Z,15.01
2022-10-01T18:35:00.140Z,14.88
2022-10-01T18:37:41.270Z,14.78
2022-10-01T18:40:12.788Z,14.71
2022-10-01T18:42:47.060Z,14.71
2022-10-01T18:45:16.490Z,14.73
2022-10-01T18:47:52.843Z,14.74
2022-10-01T18:50:22.952Z,14.80
2022-10-01T18:53:11.272Z,14.82
2022-10-01T18:55:49.117Z,14.87
2022-10-01T18:58:16.888Z,14.95
2022-10-01T19:00:49.323Z,14.98
2022-10-01T19:03:24.713Z,14.99
2022-10-01T19:06:10.562Z,14.87
2022-10-01T19:08:48.512Z,14.75
2022-10-01T19:11:25.627Z,14.81
2022-10-01T19:13:55.685Z,14.85
2022-10-01T19:16:23.047Z,14.79
2022-10-01T19:18:59.329Z,14.69
2022-10-01T19:21:52.322Z,14.68
2022-10-01T19:24:20.777Z,14.64
2022-10-01T19:26:54.349Z,14.61
2022-10-01T19:29:25.025Z,14.62
2022-10-01T19:31:56.707Z,14.61
2022-10-01T19:34:30.318Z,14.51
2022-10-01T19:37:03.844Z,14.34
2022-10-01T19:39:35.071Z,14.30
2022-10-01T19:42:05.873Z,14.24
2022-10-01T19:44:56.563Z,14.24
2022-10-01T19:47:33.027Z,14.29
2022-10-01T19:50:06.760Z,14.19
2022-10-01T19:52:38.196Z,14.16
2022-10-01T19:55:12.877Z,14.09
2022-10-01T19:57:41.588Z,14.08
2022-10-01T20:00:17.739Z,14.08
2022-10-01T20:03:04.179Z,14.02
2022-10-01T20:05:52.543Z,13.98
2022-10-01T20:08:34.215Z,14.00
2022-10-01T20:11:11.245Z,13.99
2022-10-01T20:14:01.741Z,13.96
2022-10-01T20:16:32.527Z,14.00
2022-10-01T20:18:59.921Z,14.09
2022-10-01T20:21:45.732Z,14.15
2022-10-01T20:24:31.613Z,14.11
2022-10-01T20:27:14.054Z,14.12
2022-10-01T20:30:04.206Z,14.12
2022-10-01T20:32:47.170Z,14.11
2022-10-01T20:35:20.952Z,14.12
2022-10-01T20:37:59.493Z,14.16
2022-10-01T20:40:29.103Z,14.18
2022-10-01T20:43:06.300Z,14.20
2022-10-01T20:45:35.537Z,14.28
2022-10-01T20:48:14.532Z,14.34
2022-10-01T20:50:46.417Z,14.41
2022-10-01T20:53:25.152Z,14.39
2022-10-01T20:56:01.707Z,14.40
2022-10-01T20:58:31.668Z,14.44
2022-10-01T21:01:03.112Z,14.40
2022-10-01T21:03:32.225Z,14.34
2022-10-01T21:06:08.262Z,14.30
2022-10-01T21:08:57.657Z,14.28
2022-10-01T21:11:32.189Z,14.30
2022-10-01T21:14:19.528Z,14.34
2022-10-01T21:16:53.147Z,14.40
2022-10-01T21:19:39.121Z,14.45
2022-10-01T21:22:21.795Z,14.40
2022-10-01T21:24:52.328Z,14.38
2022-10-01T21:27:35.110Z,14.41
2022-10-01T21:30:02.510Z,14.45
2022-10-01T21:32:36.851Z,14.47
2022-10-01T21:35:13.933Z,14.56
2022-10-01T21:37:43.173Z,14.63
2022-10-01T21:40:46.398Z,14.68
2022-10-01T21:43:19.152Z,14.68
2022-10-01T21:46:03.221Z,14.66
2022-10-01T21:48:39.009Z,14.67
2022-10-01T21:51:15.338Z,14.68
2022-10-01T21:53:58.381Z,14.68
2022-10-01T21:56:26.649Z,14.67
2022-10-01T21:59:13.106Z,14.66
2022-10-01T22:01:48.038Z,14.65
2022-10-01T22:04:22.326Z,14.65
2022-10-01T22:06:58.414Z,14.66
2022-10-01T22:09:32.031Z,14.67
2022-10-01T22:12:00.686Z,14.65
2022-10-01T22:14:28.030Z,14.63
2022-10-01T22:17:03.688Z,14.67
2022-10-01T22:19:37.439Z,14.67
2022-10-01T22:22:05.064Z,14.63
2022-10-01T22:24:36.856Z,14.63
2022-10-01T22:27:04.056Z,14.61
2022-10-01T22:29:31.924Z,14.61
2022-10-01T22:32:02.412Z,14.57
2022-10-01T22:34:33.800Z,14.56
2022-10-01T22:37:22.788Z,14.52
2022-10-01T22:39:55.944Z,14.47
2022-10-01T22:42:30.535Z,14.50
2022-10-01T22:45:01.827Z,14.47
2022-10-01T22:47:30.920Z,14.44
2022-10-01T22:50:12.723Z,14.45
2022-10-01T22:52:46.266Z,14.41
2022-10-01T22:55:26.013Z,14.31
2022-10-01T22:57:59.390Z,14.16
2022-10-01T23:00:26.465Z,14.05
2022-10-01T23:03:07.136Z,13.95
2022-10-01T23:05:40.985Z,13.84
2022-10-01T23:08:16.701Z,13.75
2022-10-01T23:10:44.256Z,13.66
2022-10-01T23:13:18.060Z,13.58
2022-10-01T23:16:11.280Z,13.55
2022-10-01T23:18:57.389Z,13.51
2022-10-01T23:21:35.867Z,13.43
2022-10-01T23:24:14.661Z,13.35
2022-10-01T23:26:56.951Z,13.28
2022-10-01T23:29:24.155Z,13.23
2022-10-01T23:32:00.386Z,13.13
2022-10-01T23:34:41.396Z,13.07
2022-10-01T23:37:17.547Z,13.05
2022-10-01T23:39:51.099Z,12.99
2022-10-01T23:42:21.118Z,12.96
2022-10-01T23:44:52.377Z,12.89
2022-10-01T23:47:22.465Z,12.84
2022-10-01T23:49:52.057Z,12.79
2022-10-01T23:52:25.419Z,12.75
2022-10-01T23:54:56.729Z,12.68
2022-10-01T23:57:32.769Z,12.62
